Time;durP1;ratioP1;P1;durP2;ratioP2;P2;SDS_P1;SDS_P2;PMS_P1;PMS_P2;Temp;Humidity;BMP_temperature;BMP_pressure;BME280_temperature;BME280_humidity;BME280_pressure;Samples;Min_cycle;Max_cycle;Signal;HPM_P1;HPM_P2
2022/06/07 00:02:09;;;;;;;5.57;3.53;;;;;;;23.07;36.80;100985.38;4990424;28;20133;-73
2022/06/07 00:04:38;;;;;;;6.70;4.10;;;;;;;23.06;36.47;100987.28;4957042;28;20505;-73
2022/06/07 00:07:05;;;;;;;5.50;3.50;;;;;;;23.02;37.04;100980.41;4985954;28;20058;-73
2022/06/07 00:09:32;;;;;;;5.18;3.28;;;;;;;23.00;36.46;100982.47;4983408;28;20133;-73
2022/06/07 00:11:58;;;;;;;4.70;3.28;;;;;;;22.98;36.94;100972.63;4982664;28;20136;-73
2022/06/07 00:14:25;;;;;;;4.45;3.20;;;;;;;22.97;37.22;100976.47;4982879;28;20129;-73
2022/06/07 00:16:54;;;;;;;5.20;3.00;;;;;;;22.96;36.92;100975.59;5004474;28;20132;-73
2022/06/07 00:19:22;;;;;;;4.50;3.05;;;;;;;22.94;36.93;100980.44;4999524;28;20045;-73
2022/06/07 00:21:49;;;;;;;4.22;3.08;;;;;;;22.92;36.85;100974.22;4993067;28;20046;-73
2022/06/07 00:24:15;;;;;;;4.65;3.15;;;;;;;22.91;37.06;100971.63;5002138;28;20133;-73
2022/06/07 00:26:42;;;;;;;5.25;3.22;;;;;;;22.89;36.83;100969.06;4995251;28;20133;-73
2022/06/07 00:29:09;;;;;;;5.68;3.53;;;;;;;22.87;37.25;100967.50;4999581;28;20133;-74
2022/06/07 00:31:37;;;;;;;5.30;3.58;;;;;;;22.87;36.92;100967.50;4996442;28;20125;-73
2022/06/07 00:34:06;;;;;;;6.05;3.72;;;;;;;22.84;37.28;100963.16;4996509;28;20050;-73
2022/06/07 00:36:34;;;;;;;5.25;3.60;;;;;;;22.84;37.32;100965.94;5003050;28;20558;-73
2022/06/07 00:39:02;;;;;;;5.00;3.78;;;;;;;22.81;37.44;100969.09;4997965;28;20554;-73
2022/06/07 00:41:29;;;;;;;5.13;3.65;;;;;;;22.79;37.02;100964.75;4989407;28;20137;-73
2022/06/07 00:44:21;;;;;;;6.35;3.92;;;;;;;22.75;37.68;100967.88;4992689;28;20129;-73
2022/06/07 00:46:59;;;;;;;4.90;3.78;;;;;;;22.75;37.91;100962.34;5002195;28;20080;-73
2022/06/07 00:49:29;;;;;;;5.13;3.78;;;;;;;22.73;37.23;100958.00;4997063;28;20046;-73
2022/06/07 00:51:56;;;;;;;5.80;4.07;;;;;;;22.70;37.82;100956.44;4997017;28;20078;-73
2022/06/07 00:54:27;;;;;;;5.78;3.97;;;;;;;22.72;38.03;100970.13;4996863;28;20547;-73
2022/06/07 00:56:53;;;;;;;6.60;4.13;;;;;;;22.68;37.93;100957.66;4989056;28;20074;-73
2022/06/07 00:59:20;;;;;;;4.85;3.72;;;;;;;22.67;38.13;100965.09;5001774;28;20422;-73
2022/06/07 01:01:47;;;;;;;6.43;4.03;;;;;;;22.66;38.02;100955.06;5000427;28;20123;-73
2022/06/07 01:04:13;;;;;;;5.40;3.47;;;;;;;22.64;38.03;100959.06;4997517;28;20061;-73
2022/06/07 01:12:10;;;;;;;5.72;3.90;;;;;;;22.60;37.85;100960.47;4992739;28;20058;-74
2022/06/07 01:14:37;;;;;;;4.80;3.85;;;;;;;22.60;37.96;100964.09;4963551;28;20722;-73
2022/06/07 01:17:05;;;;;;;6.95;3.95;;;;;;;22.59;38.33;100962.38;4983267;28;20073;-73
2022/06/07 01:19:32;;;;;;;5.43;3.58;;;;;;;22.57;38.42;100966.34;4984824;28;20054;-73
2022/06/07 01:21:59;;;;;;;4.68;3.42;;;;;;;22.56;38.13;100954.44;4968659;28;20085;-73
2022/06/07 01:24:26;;;;;;;5.25;3.40;;;;;;;22.56;38.01;100956.34;4984506;28;20077;-73
2022/06/07 01:26:53;;;;;;;5.50;3.00;;;;;;;22.54;38.31;100956.50;4979818;28;20074;-73
2022/06/07 01:29:20;;;;;;;4.07;2.83;;;;;;;22.53;38.29;100953.91;4974534;28;20050;-73
2022/06/07 01:31:47;;;;;;;4.50;3.28;;;;;;;22.52;38.51;100950.28;4979175;28;20075;-73
2022/06/07 01:34:15;;;;;;;6.18;3.03;;;;;;;22.52;38.40;100946.66;4973934;28;20081;-73
2022/06/07 01:36:41;;;;;;;3.88;2.92;;;;;;;22.49;38.39;100944.22;4975681;28;20055;-73
2022/06/07 01:41:56;;;;;;;3.97;2.58;;;;;;;22.45;37.81;100940.97;4977088;28;20089;-74
2022/06/07 01:44:37;;;;;;;4.82;2.67;;;;;;;22.47;37.97;100944.44;4972173;28;20456;-73
2022/06/07 01:47:07;;;;;;;4.32;2.72;;;;;;;22.44;38.09;100942.00;4972156;28;20077;-73
2022/06/07 01:49:34;;;;;;;3.38;2.20;;;;;;;22.42;38.34;100941.31;4979323;28;20526;-73
2022/06/07 01:52:01;;;;;;;3.80;2.35;;;;;;;22.40;38.19;100944.25;4976493;28;20075;-74
2022/06/07 01:54:27;;;;;;;3.47;2.33;;;;;;;22.39;37.87;100938.91;4975563;28;20047;-73
2022/06/07 01:56:54;;;;;;;3.53;2.47;;;;;;;22.37;37.82;100936.31;4972225;28;20133;-74
2022/06/07 01:59:20;;;;;;;2.72;1.80;;;;;;;22.36;38.21;100933.72;4984848;28;20571;-74
2022/06/07 02:01:48;;;;;;;4.38;2.40;;;;;;;22.36;38.22;100933.72;5000580;28;20651;-74
2022/06/07 02:04:15;;;;;;;3.90;2.03;;;;;;;22.34;37.89;100930.28;4980656;28;20554;-73
2022/06/07 02:06:42;;;;;;;3.03;2.00;;;;;;;22.32;37.53;100930.44;4967854;28;20495;-73
2022/06/07 02:09:10;;;;;;;4.05;2.15;;;;;;;22.31;38.15;100931.50;4961985;28;20526;-73
2022/06/07 02:11:37;;;;;;;3.03;1.95;;;;;;;22.30;38.04;100932.53;4982804;28;20217;-74
2022/06/07 02:14:05;;;;;;;3.80;1.90;;;;;;;22.29;37.78;100925.28;4982892;28;20125;-73
2022/06/07 02:16:33;;;;;;;3.28;1.90;;;;;;;22.27;38.13;100921.81;4987329;28;20050;-74
2022/06/07 02:19:00;;;;;;;3.22;1.92;;;;;;;22.26;37.74;100925.63;4981609;28;20133;-73
2022/06/07 02:21:27;;;;;;;3.60;2.00;;;;;;;22.25;37.77;100920.25;4989059;28;20180;-73
2022/06/07 02:23:54;;;;;;;3.33;1.75;;;;;;;22.24;37.58;100922.16;4989559;28;20042;-73
2022/06/07 02:26:25;;;;;;;2.72;1.85;;;;;;;22.24;37.70;100919.41;4990687;28;20125;-73
2022/06/07 02:29:06;;;;;;;3.15;1.80;;;;;;;22.25;37.47;100923.03;4975334;28;20238;-73
2022/06/07 02:31:35;;;;;;;3.10;1.98;;;;;;;22.21;37.64;100921.66;4987048;28;20085;-74
2022/06/07 02:34:03;;;;;;;2.50;1.70;;;;;;;22.20;38.02;100928.25;4984796;28;20117;-74
2022/06/07 02:36:33;;;;;;;3.45;1.75;;;;;;;22.17;37.49;100923.91;4990240;28;20862;-74
2022/06/07 02:39:02;;;;;;;4.55;1.95;;;;;;;22.15;37.88;100923.25;4982274;28;20121;-73
2022/06/07 02:41:31;;;;;;;1.98;1.40;;;;;;;22.14;37.35;100924.28;5005501;23;20142;-69
2022/06/07 02:43:57;;;;;;;2.58;1.70;;;;;;;22.12;37.75;100929.13;5013279;28;20091;-69
2022/06/07 02:46:31;;;;;;;2.97;1.65;;;;;;;22.11;37.78;100923.75;5022934;28;20068;-69
2022/06/07 02:48:57;;;;;;;3.88;1.77;;;;;;;22.10;37.12;100931.19;5014086;28;20141;-69
2022/06/07 02:51:24;;;;;;;3.67;1.70;;;;;;;22.08;37.66;100916.66;5025798;28;20132;-69
2022/06/07 02:53:51;;;;;;;2.30;1.45;;;;;;;22.06;37.46;100913.22;5015951;28;20046;-69
2022/06/07 02:56:17;;;;;;;3.28;1.65;;;;;;;22.04;37.77;100920.84;5020851;28;20140;-69
2022/06/07 02:58:44;;;;;;;3.25;1.83;;;;;;;22.01;37.25;100924.81;5022233;28;20441;-69
2022/06/07 03:01:10;;;;;;;3.22;1.80;;;;;;;22.00;37.24;100925.84;5016441;28;20696;-68
2022/06/07 03:03:38;;;;;;;3.30;1.77;;;;;;;21.99;37.28;100923.25;5020507;28;20049;-69
2022/06/07 03:06:06;;;;;;;2.15;1.55;;;;;;;21.97;37.36;100923.44;5014068;28;20490;-69
2022/06/07 03:08:33;;;;;;;3.10;1.40;;;;;;;21.97;37.25;100920.69;5018950;28;20137;-69
2022/06/07 03:11:00;;;;;;;3.40;1.60;;;;;;;21.94;37.76;100926.50;5017811;28;20124;-69
2022/06/07 03:13:27;;;;;;;2.22;1.50;;;;;;;21.93;37.84;100918.38;5026641;28;20076;-69
2022/06/07 03:15:54;;;;;;;2.60;1.55;;;;;;;21.91;37.37;100917.69;5024756;28;20128;-69
2022/06/07 03:18:20;;;;;;;2.30;1.50;;;;;;;21.90;37.68;100927.91;5020897;28;20162;-69
2022/06/07 03:20:48;;;;;;;2.53;1.60;;;;;;;21.89;37.68;100926.19;5024796;28;20056;-69
2022/06/07 03:23:15;;;;;;;3.25;1.63;;;;;;;21.88;37.33;100929.13;5018551;28;20064;-69
2022/06/07 03:25:41;;;;;;;2.38;1.35;;;;;;;21.87;37.80;100927.38;5006716;28;20136;-68
2022/06/07 03:28:09;;;;;;;2.03;1.38;;;;;;;21.85;37.81;100923.91;5019297;28;20067;-69
2022/06/07 03:30:36;;;;;;;2.75;1.50;;;;;;;21.83;37.77;100931.50;5022360;28;20128;-68
2022/06/07 03:33:04;;;;;;;2.90;1.85;;;;;;;21.81;37.72;100931.72;5013014;28;20049;-69
2022/06/07 03:35:30;;;;;;;3.10;1.70;;;;;;;21.81;37.62;100933.63;5021940;28;20149;-69
2022/06/07 03:37:57;;;;;;;3.15;1.60;;;;;;;21.79;37.48;100939.31;5020856;28;20160;-68
2022/06/07 03:43:09;;;;;;;3.20;1.70;;;;;;;21.73;37.75;100940.00;5013661;28;20558;-69
2022/06/07 03:45:36;;;;;;;2.60;1.70;;;;;;;21.75;37.73;100943.44;5020037;28;20067;-68
2022/06/07 03:48:02;;;;;;;2.88;1.50;;;;;;;21.73;37.30;100937.25;5010021;28;20045;-69
2022/06/07 03:50:29;;;;;;;3.63;1.60;;;;;;;21.72;37.86;100942.94;5004919;28;20050;-69
2022/06/07 03:52:55;;;;;;;2.22;1.50;;;;;;;21.72;37.38;100937.41;5020257;28;20132;-69
2022/06/07 03:55:22;;;;;;;3.10;1.60;;;;;;;21.71;37.38;100938.44;5021860;28;20131;-68
2022/06/07 03:57:49;;;;;;;2.80;1.75;;;;;;;21.71;37.37;100941.22;5011397;28;20061;-69
2022/06/07 04:00:15;;;;;;;2.00;1.30;;;;;;;21.70;37.59;100936.72;5023898;28;20724;-69
2022/06/07 04:02:42;;;;;;;3.83;1.70;;;;;;;21.70;37.80;100940.34;5014597;28;20068;-69
2022/06/07 04:05:09;;;;;;;3.85;1.35;;;;;;;21.69;37.51;100943.28;5027105;28;20052;-68
2022/06/07 04:10:21;;;;;;;2.58;1.50;;;;;;;21.66;38.13;100940.88;5012993;28;20107;-68
2022/06/07 04:12:47;;;;;;;3.47;1.60;;;;;;;21.66;37.58;100938.94;5011625;28;20041;-69
2022/06/07 04:15:14;;;;;;;3.40;1.40;;;;;;;21.66;37.32;100940.88;5026659;28;20064;-70
2022/06/07 04:17:41;;;;;;;1.77;1.27;;;;;;;21.65;37.46;100940.00;5025092;28;20128;-70
2022/06/07 04:20:10;;;;;;;2.38;1.27;;;;;;;21.66;37.10;100949.16;5005883;28;20494;-69
2022/06/07 04:22:36;;;;;;;2.20;1.75;;;;;;;21.65;37.61;100940.00;5016728;28;20080;-69
2022/06/07 04:25:04;;;;;;;2.63;1.45;;;;;;;21.64;37.48;100941.91;5022248;28;20072;-70
2022/06/07 04:27:32;;;;;;;3.13;1.17;;;;;;;21.66;37.26;100944.47;5011529;28;20621;-69
2022/06/07 04:29:59;;;;;;;2.30;1.50;;;;;;;21.63;37.45;100940.19;5024414;28;20131;-69
2022/06/07 04:32:26;;;;;;;2.30;1.30;;;;;;;21.64;37.14;100936.38;5021767;28;20084;-69
2022/06/07 04:34:52;;;;;;;2.20;1.58;;;;;;;21.64;37.53;100939.13;5011238;28;20049;-70
2022/06/07 04:37:19;;;;;;;2.33;1.30;;;;;;;21.64;37.53;100932.75;5002929;28;20080;-69
2022/06/07 04:39:46;;;;;;;2.67;1.27;;;;;;;21.65;37.14;100940.00;5019393;28;20050;-70
2022/06/07 04:42:12;;;;;;;2.35;1.17;;;;;;;21.66;37.44;100938.09;5018142;28;20140;-70
2022/06/07 04:44:39;;;;;;;2.42;1.20;;;;;;;21.66;37.72;100930.66;4999938;28;20033;-69
2022/06/07 04:47:05;;;;;;;1.98;1.05;;;;;;;21.67;37.42;100929.63;5012330;28;20133;-70
2022/06/07 04:49:32;;;;;;;3.15;1.40;;;;;;;21.69;37.63;100937.75;5024101;28;20124;-70
2022/06/07 04:51:59;;;;;;;3.25;1.50;;;;;;;21.69;37.26;100938.59;5025838;28;20561;-70
2022/06/07 04:54:25;;;;;;;2.50;1.20;;;;;;;21.71;37.46;100942.06;5015006;28;20087;-70
2022/06/07 04:56:53;;;;;;;1.92;1.17;;;;;;;21.75;37.28;100939.81;5023399;28;20076;-69
2022/06/07 04:59:20;;;;;;;2.83;1.40;;;;;;;21.75;37.19;100940.69;5007625;28;20419;-69
2022/06/07 05:01:46;;;;;;;2.17;1.40;;;;;;;21.76;37.15;100947.94;5021738;28;20629;-70
2022/06/07 05:04:13;;;;;;;2.78;1.50;;;;;;;21.78;37.73;100945.00;5014443;28;20108;-70
2022/06/07 05:06:42;;;;;;;4.32;1.50;;;;;;;21.83;37.43;100950.88;5016249;28;20137;-70
2022/06/07 05:09:12;;;;;;;2.53;1.13;;;;;;;21.85;37.11;100968.16;5017671;28;20049;-70
2022/06/07 05:11:39;;;;;;;2.38;1.20;;;;;;;21.84;37.37;100953.47;5019913;28;20096;-70
2022/06/07 05:14:07;;;;;;;3.10;1.38;;;;;;;21.90;37.60;100954.69;4993336;28;20077;-70
2022/06/07 05:16:38;;;;;;;3.08;1.58;;;;;;;21.92;37.03;100956.22;5022102;28;20080;-70
2022/06/07 05:19:06;;;;;;;3.00;1.23;;;;;;;21.91;37.19;100950.88;5015503;28;20061;-70
2022/06/07 05:21:32;;;;;;;3.70;1.33;;;;;;;21.93;37.26;100957.94;5020428;28;20475;-70
2022/06/07 05:23:59;;;;;;;1.95;1.40;;;;;;;21.95;37.16;100952.25;5018618;28;20686;-70
2022/06/07 05:26:38;;;;;;;3.53;1.50;;;;;;;22.00;37.49;100950.72;5018935;28;20054;-70
2022/06/07 05:29:06;;;;;;;2.13;1.17;;;;;;;21.99;37.25;100953.66;5022673;28;20053;-70
2022/06/07 05:31:37;;;;;;;;;;;;;;;21.73;38.10;100952.97;5021465;28;20052;-70
2022/06/07 05:34:03;;;;;;;3.30;1.30;;;;;;;21.97;37.93;100955.75;5019979;28;19920;-70
2022/06/07 05:36:30;;;;;;;1.58;1.20;;;;;;;22.01;37.56;100957.97;5023415;28;20052;-70
2022/06/07 05:38:56;;;;;;;2.80;1.40;;;;;;;22.05;37.67;100961.28;5017745;28;20470;-71
2022/06/07 05:41:28;;;;;;;3.53;1.25;;;;;;;22.09;37.54;100964.53;5018788;28;20084;-70
2022/06/07 05:43:55;;;;;;;2.33;1.20;;;;;;;22.08;37.71;100965.56;5020073;28;20054;-70
2022/06/07 05:46:22;;;;;;;2.72;1.50;;;;;;;22.10;37.56;100969.91;5003831;28;20069;-70
2022/06/07 05:48:48;;;;;;;3.58;1.20;;;;;;;22.11;37.57;100974.41;5022672;28;20140;-70
2022/06/07 05:51:16;;;;;;;2.45;1.33;;;;;;;22.14;37.85;100971.28;5026463;28;20045;-70
2022/06/07 05:53:42;;;;;;;2.13;1.38;;;;;;;22.15;37.82;100972.16;5021010;28;20053;-70
2022/06/07 05:56:12;;;;;;;3.10;1.40;;;;;;;22.18;37.42;100974.56;5025330;28;20403;-70
2022/06/07 05:58:39;;;;;;;2.00;1.20;;;;;;;22.18;37.31;100964.34;5014544;28;20048;-70
2022/06/07 06:01:07;;;;;;;2.08;1.20;;;;;;;22.20;37.22;100970.59;5018889;28;20077;-70
2022/06/07 06:03:35;;;;;;;2.45;1.20;;;;;;;22.22;37.30;100967.66;5005133;28;20049;-70
2022/06/07 06:06:03;;;;;;;2.50;1.20;;;;;;;22.25;37.65;100973.69;5023916;28;20041;-70
2022/06/07 06:11:18;;;;;;;2.30;1.33;;;;;;;22.37;37.79;100976.97;5017262;28;20054;-70
2022/06/07 06:13:44;;;;;;;2.70;1.42;;;;;;;22.43;38.19;100967.94;5006438;28;20127;-70
2022/06/07 06:16:18;;;;;;;2.10;1.30;;;;;;;22.54;37.71;100977.78;5010041;28;20127;-70
2022/06/07 06:18:46;;;;;;;4.57;1.60;;;;;;;22.62;37.61;100973.09;5007721;28;20148;-70
2022/06/07 06:21:13;;;;;;;3.55;1.50;;;;;;;22.72;37.78;100967.34;5024614;28;20063;-70
2022/06/07 06:23:40;;;;;;;3.13;1.33;;;;;;;22.82;37.69;100973.56;5021154;28;20045;-70
2022/06/07 06:26:13;;;;;;;3.15;1.60;;;;;;;22.95;37.32;100968.31;5024117;28;20056;-70
2022/06/07 06:28:41;;;;;;;4.20;1.42;;;;;;;23.01;37.12;100975.91;5021240;28;20132;-70
2022/06/07 06:31:11;;;;;;;3.90;1.35;;;;;;;23.13;37.21;100968.06;5015348;28;20082;-70
2022/06/07 06:33:42;;;;;;;2.53;1.08;;;;;;;23.24;37.21;100966.78;5025194;28;20128;-70
2022/06/07 06:36:10;;;;;;;2.47;1.38;;;;;;;23.33;36.75;100966.56;5023628;28;20045;-70
2022/06/07 06:38:37;;;;;;;2.80;1.23;;;;;;;23.40;36.30;100961.13;5026184;28;20450;-70
2022/06/07 06:41:22;;;;;;;2.00;1.20;;;;;;;23.50;36.44;100962.66;5018618;28;20046;-70
2022/06/07 06:43:50;;;;;;;2.70;1.40;;;;;;;23.54;36.32;100957.63;5024576;28;20045;-70
2022/06/07 06:46:18;;;;;;;3.00;1.13;;;;;;;23.63;35.98;100956.53;5028817;28;20510;-70
2022/06/07 06:48:45;;;;;;;1.90;1.02;;;;;;;23.67;36.01;100951.44;5020489;28;20038;-70
2022/06/07 06:51:15;;;;;;;2.42;1.10;;;;;;;23.74;36.17;100963.53;5020036;28;20141;-68
2022/06/07 06:53:42;;;;;;;1.25;1.05;;;;;;;23.77;36.22;100965.94;5004629;28;20447;-69
2022/06/07 06:56:11;;;;;;;2.13;1.10;;;;;;;23.81;35.58;100959.81;5015779;28;20060;-70
2022/06/07 06:58:39;;;;;;;2.00;0.98;;;;;;;23.84;35.98;100962.22;5013727;28;20080;-69
2022/06/07 07:01:13;;;;;;;2.53;1.30;;;;;;;23.91;34.72;100962.34;5016984;28;20081;-69
2022/06/07 07:03:41;;;;;;;2.47;1.25;;;;;;;23.92;35.44;100971.53;5006351;28;20473;-69
2022/06/07 07:06:11;;;;;;;1.40;1.02;;;;;;;23.95;34.80;100965.63;5024958;28;20045;-69
2022/06/07 07:08:40;;;;;;;2.00;0.93;;;;;;;23.95;34.86;100960.94;5017568;28;20053;-69
2022/06/07 07:11:14;;;;;;;2.28;1.08;;;;;;;23.96;34.82;100962.66;5021083;28;20527;-70
2022/06/07 07:13:42;;;;;;;3.22;1.25;;;;;;;23.92;34.56;100966.84;5016670;28;20124;-70
2022/06/07 07:16:12;;;;;;;2.17;1.20;;;;;;;23.93;34.19;100962.16;5006696;28;20518;-70
2022/06/07 07:18:39;;;;;;;2.65;1.10;;;;;;;23.90;33.73;100960.63;5009780;28;20474;-70
2022/06/07 07:21:09;;;;;;;2.78;1.20;;;;;;;23.87;33.81;100956.31;5021922;28;20136;-70
2022/06/07 07:23:36;;;;;;;3.13;1.00;;;;;;;23.84;34.25;100959.47;5027541;28;20073;-73
2022/06/07 07:26:08;;;;;;;1.08;0.80;;;;;;;23.82;34.02;100958.78;5027930;28;20092;-70
2022/06/07 07:28:37;;;;;;;2.42;1.05;;;;;;;23.79;34.22;100967.50;5018596;28;20149;-70
2022/06/07 07:31:07;;;;;;;1.80;1.10;;;;;;;23.80;33.52;100971.94;5024301;28;20045;-72
2022/06/07 07:33:34;;;;;;;3.78;1.00;;;;;;;23.77;34.03;100952.06;5017773;28;20423;-70
2022/06/07 07:36:05;;;;;;;1.30;0.90;;;;;;;23.77;33.45;100958.47;5011928;28;20088;-70
2022/06/07 07:38:33;;;;;;;2.22;1.00;;;;;;;23.75;33.79;100954.16;5014978;28;20097;-70
2022/06/07 07:41:01;;;;;;;1.92;0.90;;;;;;;23.72;34.28;100949.84;5021544;28;20112;-71
2022/06/07 07:43:27;;;;;;;1.88;1.08;;;;;;;23.72;33.95;100949.00;4998768;28;20053;-70
2022/06/07 07:45:56;;;;;;;2.55;0.98;;;;;;;23.73;33.64;100957.13;5014230;28;20429;-70
2022/06/07 07:48:24;;;;;;;2.53;1.00;;;;;;;23.70;33.52;100957.50;5020858;28;20128;-70
2022/06/07 07:50:51;;;;;;;1.50;0.80;;;;;;;23.68;33.53;100955.97;5006944;28;20074;-70
2022/06/07 07:53:20;;;;;;;2.45;0.98;;;;;;;23.67;33.55;100952.31;5009013;28;20050;-70
2022/06/07 07:55:50;;;;;;;2.60;1.00;;;;;;;23.67;33.70;100963.41;5005557;28;20475;-70
2022/06/07 07:58:19;;;;;;;3.13;0.90;;;;;;;23.65;33.68;100959.94;4998639;28;20417;-70
2022/06/07 08:00:47;;;;;;;1.83;1.13;;;;;;;23.67;33.99;100959.78;5013285;28;20585;-70
2022/06/07 08:03:15;;;;;;;2.92;1.15;;;;;;;23.66;33.93;100958.91;5013444;28;20050;-70
2022/06/07 08:05:43;;;;;;;2.45;1.10;;;;;;;23.67;33.75;100952.31;5021237;28;20072;-70
2022/06/07 08:08:10;;;;;;;2.25;1.17;;;;;;;23.68;33.72;100956.81;5016841;28;20046;-70
2022/06/07 08:10:38;;;;;;;1.90;1.10;;;;;;;23.70;34.00;100957.50;5012932;28;20150;-71
2022/06/07 08:13:07;;;;;;;3.13;1.23;;;;;;;23.72;33.73;100954.56;5007202;28;20108;-71
2022/06/07 08:15:34;;;;;;;2.80;1.08;;;;;;;23.73;33.55;100959.03;5002331;28;20132;-70
2022/06/07 08:18:02;;;;;;;2.88;1.10;;;;;;;23.74;33.25;100952.44;5019878;28;20045;-71
2022/06/07 08:20:33;;;;;;;1.95;0.93;;;;;;;23.76;32.58;100951.22;5014012;28;20542;-71
2022/06/07 08:23:01;;;;;;;1.60;0.70;;;;;;;23.75;32.85;100959.72;5019891;28;20524;-71
2022/06/07 08:25:27;;;;;;;1.98;0.98;;;;;;;23.74;32.90;100944.97;5017106;28;20171;-71
2022/06/07 08:27:54;;;;;;;2.72;0.98;;;;;;;23.74;32.34;100949.66;5013264;28;20049;-70
2022/06/07 08:30:21;;;;;;;1.75;0.75;;;;;;;23.73;32.28;100957.13;5019601;28;20224;-70
2022/06/07 08:32:47;;;;;;;2.63;1.00;;;;;;;23.72;32.39;100949.00;5011439;28;20462;-71
2022/06/07 08:38:03;;;;;;;1.63;0.90;;;;;;;23.67;32.67;100938.47;5024375;28;20045;-71
2022/06/07 08:40:40;;;;;;;1.98;1.10;;;;;;;23.67;32.90;100948.69;5035052;23;20144;-74
2022/06/07 08:43:15;;;;;;;1.58;0.82;;;;;;;23.68;32.40;100945.72;5012020;28;20517;-74
2022/06/07 08:45:44;;;;;;;1.95;1.00;;;;;;;23.67;32.56;100948.69;5014461;28;20499;-74
2022/06/07 08:48:20;;;;;;;2.38;0.93;;;;;;;23.69;32.27;100955.78;5018571;28;20050;-75
2022/06/07 08:51:11;;;;;;;2.03;1.02;;;;;;;23.70;32.61;100946.41;5011629;28;20498;-74
2022/06/07 08:53:41;;;;;;;2.55;1.00;;;;;;;23.70;32.96;100943.66;5002980;28;20133;-74
2022/06/07 08:56:15;;;;;;;2.20;0.90;;;;;;;23.75;33.32;100943.94;5017347;28;20430;-74
2022/06/07 08:58:47;;;;;;;1.27;0.85;;;;;;;23.77;33.18;100950.16;5019919;28;20489;-74
2022/06/07 09:01:41;;;;;;;2.92;1.17;;;;;;;23.83;32.80;100943.00;5007540;28;20088;-74
2022/06/07 09:04:26;;;;;;;1.98;1.00;;;;;;;23.87;33.26;100944.38;5019677;28;20046;-74
2022/06/07 09:06:56;;;;;;;1.52;0.88;;;;;;;23.92;33.69;100936.34;5008809;28;20513;-74
2022/06/07 09:12:20;;;;;;;1.35;0.90;;;;;;;24.08;33.26;100941.72;4984956;28;20057;-74
2022/06/07 09:15:18;;;;;;;1.73;1.02;;;;;;;24.15;33.64;100941.84;5015852;28;20503;-74
2022/06/07 09:17:49;;;;;;;3.42;1.10;;;;;;;24.26;33.66;100928.41;5012742;28;20065;-74
2022/06/07 09:20:21;;;;;;;1.48;0.80;;;;;;;24.39;32.97;100941.63;5008904;28;20053;-74
2022/06/07 09:23:03;;;;;;;1.95;1.10;;;;;;;24.50;32.49;100940.28;5009650;28;20550;-74
2022/06/07 09:25:35;;;;;;;3.10;1.02;;;;;;;24.56;32.44;100933.97;5019509;28;20452;-74
2022/06/07 09:28:05;;;;;;;1.73;0.90;;;;;;;24.61;33.11;100925.94;5012626;28;20120;-74
2022/06/07 09:30:44;;;;;;;3.22;1.10;;;;;;;24.75;33.00;100925.06;5029475;28;20446;-74
2022/06/07 09:33:27;;;;;;;4.32;1.30;;;;;;;24.83;32.99;100930.50;5011641;28;20498;-73
2022/06/07 09:36:07;;;;;;;;;;;;;;;24.60;33.88;100929.75;5026650;28;20060;-73
2022/06/07 09:38:47;;;;;;;2.20;0.77;;;;;;;24.98;32.58;100913.84;5004941;28;20330;-74
2022/06/07 09:41:36;;;;;;;2.33;1.00;;;;;;;25.09;33.00;100910.56;4998231;28;20132;-74
2022/06/07 09:44:29;;;;;;;1.30;0.82;;;;;;;25.17;32.58;100916.00;4999806;28;20073;-73
2022/06/07 09:47:02;;;;;;;1.77;0.90;;;;;;;25.25;32.61;100917.81;5010484;28;20453;-74
2022/06/07 09:49:32;;;;;;;3.08;0.90;;;;;;;25.34;32.49;100917.50;5011150;28;20073;-73
2022/06/07 09:52:11;;;;;;;2.30;1.13;;;;;;;25.43;32.77;100912.66;5009945;28;20060;-73
2022/06/07 09:54:44;;;;;;;1.73;1.02;;;;;;;25.50;32.54;100913.59;5021567;28;20052;-74
2022/06/07 09:57:34;;;;;;;1.55;0.88;;;;;;;25.58;32.12;100904.25;5019688;28;20132;-73
2022/06/07 10:00:24;;;;;;;2.95;1.30;;;;;;;25.65;32.33;100910.78;5022443;28;20496;-73
2022/06/07 10:03:06;;;;;;;2.30;0.90;;;;;;;25.69;32.62;100909.34;5009724;28;20487;-73
2022/06/07 10:06:11;;;;;;;1.45;0.80;;;;;;;25.74;32.30;100902.09;5026447;28;20053;-73
2022/06/07 10:09:07;;;;;;;2.47;0.80;;;;;;;25.81;32.02;100902.16;5020175;28;20537;-73
2022/06/07 10:11:55;;;;;;;2.63;1.05;;;;;;;25.87;31.55;100906.03;5013711;28;20414;-73
2022/06/07 10:14:45;;;;;;;2.55;1.30;;;;;;;25.87;32.10;100901.34;5029593;28;20060;-74
2022/06/07 10:17:33;;;;;;;2.45;1.10;;;;;;;25.91;31.70;100910.16;5015344;28;20510;-74
2022/06/07 10:20:22;;;;;;;1.83;1.00;;;;;;;25.93;31.42;100895.00;5007754;28;20121;-74
2022/06/07 10:23:05;;;;;;;2.08;0.80;;;;;;;25.98;31.30;100902.72;5014543;28;20073;-74
2022/06/07 10:25:39;;;;;;;2.38;1.00;;;;;;;25.99;31.87;100894.19;5019490;28;20088;-73
2022/06/07 10:28:25;;;;;;;2.72;1.13;;;;;;;26.02;31.54;100888.22;5012562;28;20585;-73
2022/06/07 10:31:18;;;;;;;2.53;0.88;;;;;;;26.03;31.50;100889.91;5026813;28;20045;-73
2022/06/07 10:33:50;;;;;;;;;;;;;;;25.77;32.40;100882.25;5019211;28;20041;-73
2022/06/07 10:36:23;;;;;;;2.92;1.00;;;;;;;26.05;31.49;100882.22;5031015;28;19924;-73
2022/06/07 10:39:14;;;;;;;2.10;1.13;;;;;;;26.13;31.64;100884.84;5007033;28;20125;-73
2022/06/07 10:42:02;;;;;;;1.48;0.70;;;;;;;26.19;31.49;100877.59;5026752;28;20037;-74
2022/06/07 10:44:35;;;;;;;1.83;1.00;;;;;;;26.21;31.24;100874.63;5007008;28;20085;-73
2022/06/07 10:47:18;;;;;;;1.48;0.88;;;;;;;26.25;31.47;100871.25;5018547;28;20061;-74
2022/06/07 10:50:07;;;;;;;2.97;1.00;;;;;;;26.26;31.47;100875.78;4996924;28;20132;-73
2022/06/07 10:52:51;;;;;;;1.75;0.90;;;;;;;26.30;32.06;100870.66;5016861;28;20076;-73
2022/06/07 10:55:29;;;;;;;2.00;1.00;;;;;;;26.40;31.68;100869.22;5023162;28;20128;-73
2022/06/07 10:58:30;;;;;;;2.17;0.90;;;;;;;26.43;31.71;100874.41;5018079;28;20110;-73
2022/06/07 11:00:59;;;;;;;1.55;0.80;;;;;;;26.48;31.32;100866.28;5017822;28;20510;-73
2022/06/07 11:03:50;;;;;;;2.47;0.80;;;;;;;26.58;30.72;100868.69;5005875;28;20229;-74
2022/06/07 11:09:23;;;;;;;2.03;0.90;;;;;;;26.65;31.02;100868.72;5024795;28;20045;-74
2022/06/07 11:12:01;;;;;;;2.83;1.13;;;;;;;26.73;30.66;100869.41;5016803;28;20050;-74
2022/06/07 11:14:43;;;;;;;3.40;1.05;;;;;;;26.77;30.24;100876.25;5010172;28;20380;-74
2022/06/07 11:17:20;;;;;;;1.77;0.87;;;;;;;26.76;30.48;100869.00;4994212;28;20073;-73
2022/06/07 11:19:49;;;;;;;1.45;0.88;;;;;;;26.76;30.28;100871.78;5023922;28;20037;-74
2022/06/07 11:22:22;;;;;;;1.20;0.90;;;;;;;26.79;29.78;100868.56;5003422;28;20145;-74
2022/06/07 11:25:33;;;;;;;1.42;0.80;;;;;;;26.72;30.08;100873.25;5021379;28;20498;-74
2022/06/07 11:28:08;;;;;;;2.08;1.00;;;;;;;26.73;30.04;100871.31;4982941;28;20795;-74
2022/06/07 11:30:37;;;;;;;2.47;1.00;;;;;;;26.70;30.30;100874.50;5022241;28;20122;-74
2022/06/07 11:33:32;;;;;;;2.05;1.00;;;;;;;26.67;30.00;100864.66;5000235;28;20038;-74
2022/06/07 11:36:13;;;;;;;1.77;0.93;;;;;;;26.66;30.12;100871.31;5026578;28;20442;-74
2022/06/07 11:38:58;;;;;;;2.17;1.10;;;;;;;26.59;30.48;100861.19;5022932;28;20049;-74
2022/06/07 11:41:36;;;;;;;1.45;0.98;;;;;;;26.58;30.13;100863.13;5019033;28;20389;-74
2022/06/07 11:44:04;;;;;;;2.85;1.10;;;;;;;26.56;30.37;100868.03;5017362;28;20053;-74
2022/06/07 11:46:34;;;;;;;1.60;0.93;;;;;;;26.56;30.67;100858.81;5001175;28;20132;-74
2022/06/07 11:49:20;;;;;;;1.83;1.20;;;;;;;26.53;30.36;100866.50;5005591;28;20056;-74
2022/06/07 11:51:57;;;;;;;1.73;1.05;;;;;;;26.52;30.25;100853.66;5025980;28;20045;-74
2022/06/07 11:54:37;;;;;;;2.40;0.98;;;;;;;26.51;30.32;100863.09;5016230;28;20073;-74
2022/06/07 11:57:30;;;;;;;2.60;1.00;;;;;;;26.48;30.61;100857.06;5024911;28;20560;-74
2022/06/07 12:00:03;;;;;;;;;;;;;;;26.16;31.04;100866.91;5021687;28;20049;-74
2022/06/07 12:02:36;;;;;;;2.63;1.00;;;;;;;26.41;30.84;100870.09;5015490;28;19921;-75
2022/06/07 12:05:18;;;;;;;2.85;1.13;;;;;;;26.40;30.62;100865.59;5025019;28;20049;-74
2022/06/07 12:07:56;;;;;;;2.17;1.08;;;;;;;26.35;31.02;100863.44;5026426;28;20132;-74
2022/06/07 12:10:35;;;;;;;1.88;1.10;;;;;;;26.35;30.86;100865.34;5016902;28;20075;-74
2022/06/07 12:13:49;;;;;;;2.40;1.15;;;;;;;26.31;30.76;100864.88;5018607;28;20560;-75